Time;durP1;ratioP1;P1;durP2;ratioP2;P2;SDS_P1;SDS_P2;PMS_P1;PMS_P2;Temp;Humidity;BMP_temperature;BMP_pressure;BME280_temperature;BME280_humidity;BME280_pressure;Samples;Min_cycle;Max_cycle;Signal;HPM_P1;HPM_P2
2023/02/11 00:01:24;;;;;;;;;76.00;63.33;;;;;7.17;72.03;102895.06;4976116;28;45269;-72
2023/02/11 00:03:49;;;;;;;;;72.00;59.33;;;;;7.13;72.62;102896.75;4975733;28;45330;-72
2023/02/11 00:06:15;;;;;;;;;74.00;59.67;;;;;7.12;72.09;102888.91;4975954;28;45174;-73
2023/02/11 00:08:40;;;;;;;;;67.33;55.00;;;;;7.09;72.24;102881.88;4973417;28;45366;-73
2023/02/11 00:11:06;;;;;;;;;68.00;55.67;;;;;7.08;72.56;102880.13;4975032;28;45227;-73
2023/02/11 00:13:32;;;;;;;;;76.67;64.33;;;;;7.08;72.37;102877.50;4974326;28;45439;-72
2023/02/11 00:15:57;;;;;;;;;72.67;57.33;;;;;6.99;72.13;102866.94;4975394;28;45338;-73
2023/02/11 00:18:22;;;;;;;;;74.00;62.00;;;;;7.04;72.80;102877.47;4974565;28;46134;-72
2023/02/11 00:20:48;;;;;;;;;74.00;59.67;;;;;6.99;72.76;102870.44;4974717;28;45326;-73
2023/02/11 00:23:14;;;;;;;;;72.33;58.00;;;;;7.01;72.88;102873.06;4973772;28;45281;-72
2023/02/11 00:25:41;;;;;;;;;72.00;59.67;;;;;7.00;73.09;102884.38;4974690;28;45307;-71
2023/02/11 00:28:07;;;;;;;;;70.67;57.67;;;;;6.95;72.58;102867.75;4974795;28;45526;-71
2023/02/11 00:30:32;;;;;;;;;78.33;66.00;;;;;6.92;72.55;102867.72;4973313;28;45344;-71
2023/02/11 00:32:58;;;;;;;;;72.00;57.67;;;;;6.91;72.49;102868.59;4973665;28;45415;-72
2023/02/11 00:35:23;;;;;;;;;74.00;57.67;;;;;6.90;72.03;102862.50;4974769;28;45517;-73
2023/02/11 00:37:48;;;;;;;;;72.00;59.00;;;;;6.83;72.65;102861.53;4972744;28;48648;-72
2023/02/11 00:40:14;;;;;;;;;76.00;60.67;;;;;6.86;72.80;102868.50;4975018;28;45362;-73
2023/02/11 00:42:41;;;;;;;;;78.00;67.67;;;;;6.78;73.06;102859.69;4974933;28;45320;-70
2023/02/11 00:45:08;;;;;;;;;71.33;58.00;;;;;6.83;73.00;102864.13;4975088;28;45271;-72
2023/02/11 00:47:34;;;;;;;;;74.67;61.67;;;;;6.83;73.14;102865.84;4974561;28;47543;-72
2023/02/11 00:50:00;;;;;;;;;72.67;59.00;;;;;6.80;72.50;102874.56;4974058;28;45630;-72
2023/02/11 00:52:26;;;;;;;;;77.33;63.33;;;;;6.77;72.67;102871.00;4974204;28;45283;-72
2023/02/11 00:54:51;;;;;;;;;69.67;57.67;;;;;6.69;73.32;102860.47;4974420;28;45568;-72
2023/02/11 00:57:16;;;;;;;;;76.00;60.67;;;;;6.73;73.96;102864.88;4973659;28;53511;-72
2023/02/11 00:59:42;;;;;;;;;70.33;57.67;;;;;6.72;73.80;102863.13;4973812;28;56406;-72
2023/02/11 01:02:07;;;;;;;;;72.67;59.67;;;;;6.70;73.24;102864.84;4974767;28;45313;-72
2023/02/11 01:04:33;;;;;;;;;74.33;60.33;;;;;6.69;73.83;102861.34;4974653;28;45640;-72
2023/02/11 01:06:58;;;;;;;;;76.33;62.00;;;;;6.73;73.60;102862.28;4973807;28;46856;-73
2023/02/11 01:09:23;;;;;;;;;74.00;59.00;;;;;6.72;74.46;102861.38;4974167;28;52462;-71
2023/02/11 01:11:48;;;;;;;;;73.33;58.00;;;;;6.69;74.26;102850.00;4974934;28;45416;-70
2023/02/11 01:14:14;;;;;;;;;74.33;59.33;;;;;6.72;73.33;102837.84;4974254;28;45514;-72
2023/02/11 01:16:40;;;;;;;;;73.33;59.33;;;;;6.74;73.91;102853.56;4974356;28;46345;-72
2023/02/11 01:19:05;;;;;;;;;72.67;58.33;;;;;6.64;74.14;102836.88;4974230;28;45378;-71
2023/02/11 01:21:31;;;;;;;;;74.00;60.00;;;;;6.73;74.48;102857.91;4973881;28;45258;-71
2023/02/11 01:23:56;;;;;;;;;72.67;58.33;;;;;6.70;74.01;102851.75;4974089;28;45474;-72
2023/02/11 01:26:21;;;;;;;;;74.00;60.00;;;;;6.77;74.31;102858.84;4973768;28;46097;-71
2023/02/11 01:28:47;;;;;;;;;73.33;60.00;;;;;6.69;74.26;102839.53;4973720;28;45215;-71
2023/02/11 01:31:13;;;;;;;;;75.00;62.00;;;;;6.73;74.05;102854.41;4974165;28;45271;-71
2023/02/11 01:33:38;;;;;;;;;73.00;59.00;;;;;6.67;74.21;102833.41;4975016;28;45272;-71
2023/02/11 01:36:05;;;;;;;;;74.00;60.67;;;;;6.71;74.51;102840.44;4974097;28;45461;-73
2023/02/11 01:38:31;;;;;;;;;75.33;57.67;;;;;6.71;74.00;102840.44;4972437;28;45402;-72
2023/02/11 01:41:03;;;;;;;;;77.00;61.00;;;;;6.72;73.93;102843.06;4978253;28;45843;-72
2023/02/11 01:43:33;;;;;;;;;72.67;56.00;;;;;6.72;73.99;102844.81;4974673;28;45174;-71
2023/02/11 01:45:59;;;;;;;;;72.00;59.33;;;;;6.71;73.78;102843.91;4973885;28;48178;-71
2023/02/11 01:48:47;;;;;;;;;76.33;62.33;;;;;6.69;74.40;102842.16;4975740;28;45277;-72
2023/02/11 01:51:17;;;;;;;;;73.00;60.00;;;;;6.69;74.18;102850.88;4977112;28;45405;-70
2023/02/11 01:59:23;;;;;;;;;77.00;64.67;;;;;6.65;74.50;102849.06;4975715;28;45320;-73
2023/02/11 02:01:59;;;;;;;;;77.67;61.67;;;;;6.63;73.76;102842.94;4975296;28;45345;-73
2023/02/11 02:04:30;;;;;;;;;74.33;60.33;;;;;6.61;73.91;102846.41;4975285;28;45444;-73
2023/02/11 02:07:05;;;;;;;;;75.00;62.33;;;;;6.57;74.83;102843.78;4973269;28;47661;-73
2023/02/11 02:09:37;;;;;;;;;77.00;59.00;;;;;6.55;74.43;102842.88;4974104;28;45424;-72
2023/02/11 02:12:03;;;;;;;;;78.67;64.00;;;;;6.52;74.18;102829.75;4973557;28;45239;-73
2023/02/11 02:14:28;;;;;;;;;74.33;59.67;;;;;6.53;74.47;102836.75;4973566;27;45485;-72
2023/02/11 02:16:54;;;;;;;;;73.00;60.33;;;;;6.40;74.27;102822.63;4972966;28;55632;-73
2023/02/11 02:19:40;;;;;;;;;71.33;57.67;;;;;6.49;74.58;102837.56;4975275;28;45302;-73
2023/02/11 02:22:51;;;;;;;;;70.33;56.67;;;;;6.47;74.22;102828.81;4973261;28;45487;-73
2023/02/11 02:25:19;;;;;;;;;72.67;58.00;;;;;6.45;74.23;102816.56;4976159;28;45264;-72
2023/02/11 02:28:35;;;;;;;;;70.67;58.00;;;;;6.45;74.61;102819.19;4972753;28;45638;-72
2023/02/11 02:31:25;;;;;;;;;76.33;63.67;;;;;6.45;74.32;102819.19;5005564;28;45407;-72
2023/02/11 02:34:07;;;;;;;;;71.33;58.67;;;;;6.40;74.11;102817.38;4975640;28;45198;-73
2023/02/11 02:36:54;;;;;;;;;72.00;59.00;;;;;6.40;74.99;102813.91;4974457;28;45489;-72
2023/02/11 02:39:25;;;;;;;;;76.00;62.33;;;;;6.14;74.38;102783.03;4972480;28;46081;-73
2023/02/11 02:41:53;;;;;;;;;73.33;58.00;;;;;6.39;74.20;102822.63;4972682;28;45462;-72
2023/02/11 02:44:20;;;;;;;;;72.33;58.67;;;;;6.34;74.86;102809.47;4972852;28;45350;-72
2023/02/11 02:46:45;;;;;;;;;75.00;60.33;;;;;6.41;74.85;102823.50;4971681;28;45331;-72
2023/02/11 02:49:15;;;;;;;;;73.33;61.00;;;;;6.26;74.57;102792.81;4977500;28;45332;-72
2023/02/11 02:52:04;;;;;;;;;75.00;61.67;;;;;6.29;74.68;102796.31;4976685;28;45365;-71
2023/02/11 02:54:33;;;;;;;;;77.33;61.67;;;;;6.40;73.95;102811.28;4975628;28;45215;-72
2023/02/11 02:57:07;;;;;;;;;76.67;63.67;;;;;6.36;74.24;102805.13;4975855;28;45409;-72
2023/02/11 02:59:50;;;;;;;;;74.33;60.00;;;;;6.37;74.68;102806.88;4973816;28;46984;-72
2023/02/11 03:02:30;;;;;;;;;75.00;59.00;;;;;6.37;74.41;102812.13;4975722;28;45333;-71
2023/02/11 03:05:10;;;;;;;;;75.00;62.00;;;;;6.36;74.09;102805.13;4975487;28;45859;-72
2023/02/11 03:07:57;;;;;;;;;74.33;61.00;;;;;6.36;74.55;102801.63;4975775;28;45216;-71
2023/02/11 03:10:35;;;;;;;;;70.67;58.00;;;;;6.35;74.05;102805.09;4975627;28;46169;-72
2023/02/11 03:13:03;;;;;;;;;71.00;56.67;;;;;6.33;74.48;102796.34;4976939;27;45337;-70
2023/02/11 03:15:33;;;;;;;;;76.00;60.00;;;;;6.34;74.84;102805.97;4977987;28;45436;-70
2023/02/11 03:18:02;;;;;;;;;73.00;60.00;;;;;6.31;74.58;102798.06;4974688;28;45299;-70
2023/02/11 03:20:31;;;;;;;;;76.00;63.33;;;;;6.32;74.63;102800.72;4958532;28;48257;-73
2023/02/11 03:23:11;;;;;;;;;73.67;61.33;;;;;6.32;75.11;102799.81;4977468;28;45389;-72
2023/02/11 03:25:44;;;;;;;;;76.67;64.00;;;;;6.33;74.64;102798.97;4984324;28;45406;-70
2023/02/11 03:28:20;;;;;;;;;69.67;57.67;;;;;6.32;74.13;102792.00;4977133;28;45322;-74
2023/02/11 03:30:52;;;;;;;;;75.33;59.67;;;;;6.28;74.83;102789.34;4975461;28;46041;-72
2023/02/11 03:33:29;;;;;;;;;75.00;63.33;;;;;6.31;74.05;102796.34;4974100;28;45357;-70
2023/02/11 03:36:14;;;;;;;;;76.00;63.00;;;;;6.29;74.22;102791.09;4975415;28;45557;-70
2023/02/11 03:38:48;;;;;;;;;71.33;59.00;;;;;6.28;73.89;102799.78;4975362;28;45184;-71
2023/02/11 03:41:16;;;;;;;;;74.67;60.00;;;;;6.27;73.84;102797.16;4975242;28;45531;-72
2023/02/11 03:43:49;;;;;;;;;73.33;58.33;;;;;6.24;73.85;102795.38;4974936;28;45446;-71
2023/02/11 03:46:18;;;;;;;;;72.33;59.33;;;;;6.22;74.70;102791.00;4975487;28;45249;-70
2023/02/11 03:48:48;;;;;;;;;73.67;59.67;;;;;6.21;73.94;102792.72;4975402;28;45316;-71
2023/02/11 03:51:15;;;;;;;;;69.33;57.67;;;;;6.23;74.07;102795.38;4975351;28;46505;-71
2023/02/11 03:53:43;;;;;;;;;75.00;60.33;;;;;6.21;75.03;102786.63;4974900;28;45589;-70
2023/02/11 03:56:14;;;;;;;;;74.67;61.00;;;;;6.19;74.10;102781.38;4975615;28;45384;-72
2023/02/11 03:58:39;;;;;;;;;78.33;66.00;;;;;6.16;74.45;102786.56;4976283;28;45609;-72
2023/02/11 04:01:07;;;;;;;;;75.33;61.67;;;;;6.17;74.35;102790.06;4975097;28;46475;-73
2023/02/11 04:03:32;;;;;;;;;72.00;59.33;;;;;6.16;74.23;102791.78;4974345;28;45406;-72
2023/02/11 04:05:58;;;;;;;;;70.33;57.00;;;;;6.13;74.50;102787.41;4974702;28;54214;-72
2023/02/11 04:08:23;;;;;;;;;78.33;64.00;;;;;6.11;74.45;102785.63;4977649;28;45234;-72
2023/02/11 04:10:48;;;;;;;;;77.67;63.33;;;;;6.07;74.75;102781.19;4975462;28;46569;-73
2023/02/11 04:13:14;;;;;;;;;71.00;58.00;;;;;6.12;74.71;102795.22;4974252;28;56291;-72
2023/02/11 04:15:39;;;;;;;;;76.00;63.67;;;;;6.11;74.63;102796.97;4974800;28;45337;-71
2023/02/11 04:18:04;;;;;;;;;76.67;65.33;;;;;6.10;74.45;102797.81;4975216;28;45513;-71
2023/02/11 04:20:30;;;;;;;;;74.67;61.00;;;;;6.07;73.92;102799.50;4973927;28;46970;-72
2023/02/11 04:22:55;;;;;;;;;77.00;61.00;;;;;6.02;74.55;102782.88;4975958;28;45308;-72
2023/02/11 04:25:20;;;;;;;;;79.33;64.67;;;;;5.98;74.76;102776.72;4977677;28;45361;-74
2023/02/11 04:27:46;;;;;;;;;77.33;64.00;;;;;6.06;74.71;102806.47;4980935;28;45312;-71
2023/02/11 04:30:12;;;;;;;;;75.00;60.33;;;;;6.07;74.63;102808.22;4979978;28;56673;-72
2023/02/11 04:32:37;;;;;;;;;78.33;65.67;;;;;6.07;75.12;102809.94;4978786;28;45337;-72
2023/02/11 04:35:03;;;;;;;;;79.00;63.33;;;;;5.98;75.44;102793.25;4977972;28;45341;-73
2023/02/11 04:37:28;;;;;;;;;75.33;62.00;;;;;6.04;74.92;102809.91;4977307;28;45228;-71
2023/02/11 04:39:54;;;;;;;;;76.00;61.67;;;;;6.06;74.53;102821.25;4978381;28;46115;-71
2023/02/11 04:42:19;;;;;;;;;71.00;58.00;;;;;6.03;74.79;102805.53;4976401;28;45197;-71
2023/02/11 04:44:44;;;;;;;;;72.67;59.33;;;;;6.03;74.12;102806.44;4974659;28;45170;-72
2023/02/11 04:47:12;;;;;;;;;76.00;61.67;;;;;6.02;74.89;102812.50;4974385;28;51104;-72
2023/02/11 04:49:37;;;;;;;;;70.33;58.00;;;;;5.98;74.80;102806.31;4974284;28;46359;-73
2023/02/11 04:52:03;;;;;;;;;76.67;62.00;;;;;5.97;74.66;102804.56;4974883;28;45492;-72
2023/02/11 04:54:29;;;;;;;;;78.00;64.67;;;;;5.96;74.79;102801.94;4976753;28;45386;-73
2023/02/11 04:56:57;;;;;;;;;76.67;66.33;;;;;5.96;74.16;102805.41;4975775;28;45242;-72
2023/02/11 04:59:23;;;;;;;;;80.67;65.67;;;;;5.89;73.96;102787.03;4974064;28;46007;-73
2023/02/11 05:01:48;;;;;;;;;74.33;61.00;;;;;5.84;74.61;102786.94;4974748;28;45253;-72
2023/02/11 05:04:14;;;;;;;;;73.67;59.67;;;;;5.86;74.08;102795.69;4974527;28;45354;-72
2023/02/11 05:06:39;;;;;;;;;80.67;64.00;;;;;5.87;74.39;102793.97;4974402;28;45592;-72
2023/02/11 05:09:05;;;;;;;;;74.00;59.33;;;;;5.82;74.64;102797.34;4972827;28;62896;-73
2023/02/11 05:11:30;;;;;;;;;79.00;63.67;;;;;5.79;74.54;102789.47;4977438;28;53043;-73
2023/02/11 05:13:55;;;;;;;;;77.00;63.00;;;;;5.73;74.66;102784.16;4979458;28;45336;-71
2023/02/11 05:16:21;;;;;;;;;76.67;60.67;;;;;5.71;74.56;102783.25;4975568;28;45490;-73
2023/02/11 05:18:46;;;;;;;;;78.33;63.67;;;;;5.67;74.37;102784.06;4975195;28;50282;-71
2023/02/11 05:21:15;;;;;;;;;78.33;66.33;;;;;5.67;74.15;102784.94;4974087;28;45356;-72
2023/02/11 05:23:41;;;;;;;;;75.67;61.33;;;;;5.65;74.62;102784.06;4974639;28;45254;-71
2023/02/11 05:26:07;;;;;;;;;72.00;59.33;;;;;5.64;74.94;102782.28;4980092;28;45528;-73
2023/02/11 05:28:34;;;;;;;;;73.33;58.33;;;;;5.63;74.80;102774.41;4980026;28;45335;-73
2023/02/11 05:30:59;;;;;;;;;72.00;59.00;;;;;5.62;75.03;102775.28;4978167;28;45235;-72
2023/02/11 05:33:25;;;;;;;;;72.00;59.00;;;;;5.60;74.94;102779.59;4974127;28;45408;-71
2023/02/11 05:35:50;;;;;;;;;75.33;61.00;;;;;5.41;74.90;102750.59;4975443;28;45371;-73
2023/02/11 05:38:16;;;;;;;;;74.00;59.33;;;;;5.26;74.86;102727.72;4973438;28;56008;-72
2023/02/11 05:40:41;;;;;;;;;73.33;59.00;;;;;5.51;74.43;102770.75;4974732;28;45423;-72
2023/02/11 05:43:06;;;;;;;;;77.00;64.33;;;;;5.52;74.79;102775.13;4976507;28;45329;-72
2023/02/11 05:45:32;;;;;;;;;73.67;60.00;;;;;5.49;74.29;102771.59;4974069;28;45557;-72
2023/02/11 05:47:58;;;;;;;;;72.33;58.67;;;;;5.38;74.50;102758.38;4973522;28;45367;-72
2023/02/11 05:50:24;;;;;;;;;73.67;60.67;;;;;5.18;74.03;102732.81;4973499;28;45898;-71
2023/02/11 05:52:49;;;;;;;;;73.33;59.00;;;;;5.38;74.71;102772.31;4973802;28;45390;-71
2023/02/11 05:55:15;;;;;;;;;76.00;61.67;;;;;5.40;74.96;102774.94;4973764;28;45852;-77
2023/02/11 05:57:40;;;;;;;;;71.00;57.33;;;;;5.38;74.73;102777.53;4971942;28;47009;-73
2023/02/11 06:00:07;;;;;;;;;74.67;60.67;;;;;5.37;74.69;102774.88;4973490;28;47905;-73
2023/02/11 06:02:32;;;;;;;;;81.00;66.67;;;;;5.36;75.03;102773.13;4974397;28;45369;-71
2023/02/11 06:04:58;;;;;;;;;75.33;60.33;;;;;5.36;74.93;102771.41;4974936;28;45565;-73
2023/02/11 06:07:23;;;;;;;;;76.33;62.67;;;;;5.34;74.82;102770.50;4975171;28;46173;-72
2023/02/11 06:09:49;;;;;;;;;74.33;59.33;;;;;5.29;75.13;102758.22;4973977;28;45259;-72
2023/02/11 06:12:14;;;;;;;;;75.67;60.67;;;;;5.29;75.47;102766.91;4973306;28;45410;-71
2023/02/11 06:14:39;;;;;;;;;75.67;61.33;;;;;5.28;75.05;102769.50;4972306;28;45621;-72
2023/02/11 06:17:05;;;;;;;;;76.67;61.00;;;;;5.27;75.32;102779.03;4973367;28;46194;-71
2023/02/11 06:19:30;;;;;;;;;77.33;62.67;;;;;5.26;75.44;102774.69;4973069;28;51993;-72
2023/02/11 06:21:56;;;;;;;;;74.00;59.67;;;;;5.25;75.21;102781.66;4973391;28;45525;-73
2023/02/11 06:24:21;;;;;;;;;73.67;59.00;;;;;5.25;75.26;102788.59;4973510;28;45469;-72
2023/02/11 06:26:47;;;;;;;;;75.67;62.67;;;;;5.24;75.62;102792.03;4971739;28;46070;-72
2023/02/11 06:29:12;;;;;;;;;77.00;63.33;;;;;5.18;75.81;102781.50;4973610;28;45349;-72
2023/02/11 06:31:38;;;;;;;;;75.33;60.67;;;;;5.24;75.85;102786.81;4974008;28;45244;-69
2023/02/11 06:34:03;;;;;;;;;75.67;60.67;;;;;5.22;76.03;102780.69;4973876;28;45371;-70
2023/02/11 06:36:29;;;;;;;;;72.67;59.67;;;;;5.19;75.08;102783.25;4972914;28;46012;-71
2023/02/11 06:38:55;;;;;;;;;76.67;63.00;;;;;5.21;75.93;102785.06;4971554;28;45561;-71
2023/02/11 06:41:20;;;;;;;;;76.67;59.00;;;;;5.22;75.89;102796.34;4971226;28;45263;-72
2023/02/11 06:43:47;;;;;;;;;77.00;61.00;;;;;5.22;75.91;102797.25;4971632;28;45500;-71
2023/02/11 06:46:12;;;;;;;;;79.00;63.33;;;;;5.16;75.95;102783.19;4972525;28;46264;-71
2023/02/11 06:48:37;;;;;;;;;76.00;61.00;;;;;5.21;75.86;102798.09;4972241;28;45387;-73
2023/02/11 06:51:05;;;;;;;;;79.00;67.00;;;;;5.24;76.20;102794.66;4972565;28;47965;-71
2023/02/11 06:53:34;;;;;;;;;73.00;60.00;;;;;5.24;76.03;102795.53;4974032;28;45625;-72
2023/02/11 06:56:04;;;;;;;;;63.33;51.33;;;;;5.17;75.91;102784.97;4976439;28;45936;-72
2023/02/11 06:58:30;;;;;;;;;75.33;61.67;;;;;5.23;76.12;102795.50;4972964;28;45334;-70
2023/02/11 07:00:55;;;;;;;;;76.00;60.67;;;;;5.26;76.10;102804.28;4971751;28;45500;-71
2023/02/11 07:03:21;;;;;;;;;80.00;67.00;;;;;5.17;76.43;102798.91;4972849;28;45480;-71
2023/02/11 07:05:46;;;;;;;;;73.33;61.00;;;;;5.26;75.62;102819.94;4972293;28;46768;-71
2023/02/11 07:08:12;;;;;;;;;71.67;58.00;;;;;5.26;76.09;102821.66;4972492;28;45441;-71
2023/02/11 07:10:37;;;;;;;;;74.67;60.67;;;;;5.17;75.48;102811.06;4970993;28;45508;-72
2023/02/11 07:13:02;;;;;;;;;74.00;60.00;;;;;5.23;75.69;102826.81;4973778;28;45366;-73
2023/02/11 07:15:28;;;;;;;;;77.00;61.67;;;;;5.22;75.99;102830.28;4974537;28;45410;-72
2023/02/11 07:17:53;;;;;;;;;78.33;61.00;;;;;5.21;76.14;102815.47;4975847;28;45444;-72
2023/02/11 07:20:18;;;;;;;;;75.67;61.00;;;;;5.22;76.32;102825.94;4973838;28;45346;-72
2023/02/11 07:22:44;;;;;;;;;77.00;62.33;;;;;5.19;76.34;102828.50;4974146;28;45675;-70
2023/02/11 07:25:09;;;;;;;;;77.00;61.67;;;;;5.23;76.35;102837.25;4974655;28;45415;-73
2023/02/11 07:27:34;;;;;;;;;79.67;63.00;;;;;5.25;76.80;102840.78;4975564;28;45272;-70
2023/02/11 07:30:00;;;;;;;;;84.67;72.33;;;;;5.28;76.40;102851.25;4972673;28;45293;-72
2023/02/11 07:32:25;;;;;;;;;81.00;62.33;;;;;5.30;76.00;102846.09;4972808;28;45232;-72
2023/02/11 07:34:51;;;;;;;;;78.67;65.67;;;;;5.33;76.53;102847.03;4974385;28;46122;-71
2023/02/11 07:37:16;;;;;;;;;80.67;62.33;;;;;5.34;75.94;102842.69;4975225;28;45359;-72
2023/02/11 07:39:41;;;;;;;;;77.33;62.33;;;;;5.35;76.37;102845.34;4974730;28;48770;-73
2023/02/11 07:42:06;;;;;;;;;78.00;64.33;;;;;5.40;76.17;102840.19;4975455;28;45241;-70
2023/02/11 07:44:32;;;;;;;;;77.00;62.00;;;;;5.43;75.73;102845.47;4975585;28;45353;-69
2023/02/11 07:46:58;;;;;;;;;83.00;71.67;;;;;5.46;76.27;102849.88;4976011;28;45322;-73
2023/02/11 07:49:24;;;;;;;;;79.67;66.67;;;;;5.46;76.49;102842.03;4975563;28;45242;-71
2023/02/11 07:51:50;;;;;;;;;79.00;66.00;;;;;5.50;76.28;102843.84;4975256;28;45553;-71
2023/02/11 07:54:18;;;;;;;;;76.00;61.00;;;;;5.53;76.17;102844.75;4974006;28;47149;-71
2023/02/11 07:56:43;;;;;;;;;76.00;64.33;;;;;5.43;75.69;102823.72;4975100;28;45486;-72
2023/02/11 07:59:09;;;;;;;;;80.67;67.33;;;;;5.56;76.16;102844.81;4975320;28;45314;-72
2023/02/11 08:01:35;;;;;;;;;76.67;62.67;;;;;5.54;75.09;102827.38;4977385;28;45443;-72
2023/02/11 08:04:01;;;;;;;;;82.67;68.67;;;;;5.53;75.13;102838.69;4975620;28;48999;-73
2023/02/11 08:06:29;;;;;;;;;86.00;76.67;;;;;5.58;75.56;102843.97;4974863;28;45401;-72
2023/02/11 08:08:55;;;;;;;;;91.00;88.00;;;;;5.58;75.13;102847.47;4974136;28;45322;-72
2023/02/11 08:11:24;;;;;;;;;81.67;69.33;;;;;5.56;75.56;102839.59;4976883;28;45323;-71
2023/02/11 08:13:50;;;;;;;;;82.00;72.00;;;;;5.64;76.05;102842.34;4975208;28;46982;-73
2023/02/11 08:16:20;;;;;;;;;76.67;63.67;;;;;5.66;75.66;102835.41;4974973;28;45232;-71
2023/02/11 08:18:46;;;;;;;;;77.00;64.33;;;;;5.68;75.14;102841.53;4975245;28;45502;-71
2023/02/11 08:21:11;;;;;;;;;76.33;62.67;;;;;5.68;74.85;102845.88;4975227;28;45568;-71
2023/02/11 08:23:38;;;;;;;;;78.67;65.00;;;;;5.69;75.77;102835.47;4974434;28;46124;-71
2023/02/11 08:26:06;;;;;;;;;76.67;64.67;;;;;5.73;75.36;102839.00;4974959;28;45426;-70
2023/02/11 08:28:35;;;;;;;;;78.33;65.67;;;;;5.75;74.79;102846.88;4975939;28;45386;-71
2023/02/11 08:31:09;;;;;;;;;131.50;127.50;;;;;5.76;75.38;102844.28;4975557;28;45525;-71
2023/02/11 08:33:35;;;;;;;;;183.25;174.75;;;;;5.82;76.17;102843.50;4973317;28;48178;-72
2023/02/11 08:36:07;;;;;;;;;251.50;239.25;;;;;5.87;75.82;102844.44;4976023;28;45303;-70
2023/02/11 08:38:33;;;;;;;;;80.67;72.00;;;;;5.85;75.48;102830.50;4980935;28;45363;-71
2023/02/11 08:40:59;;;;;;;;;80.00;69.33;;;;;5.95;74.48;102842.84;4977943;28;45355;-71
2023/02/11 08:43:24;;;;;;;;;83.00;70.00;;;;;6.03;74.94;102850.84;4974660;28;45403;-73
2023/02/11 08:45:50;;;;;;;;;79.33;67.67;;;;;5.81;74.79;102805.19;4973169;28;45404;-72
2023/02/11 08:48:15;;;;;;;;;80.33;69.67;;;;;6.20;74.07;102858.06;4976737;28;45532;-72
2023/02/11 08:50:41;;;;;;;;;84.33;77.00;;;;;6.30;73.97;102862.56;4976613;28;45287;-73
2023/02/11 08:53:06;;;;;;;;;80.00;70.67;;;;;6.41;74.11;102862.72;4976382;28;45351;-69
2023/02/11 08:55:32;;;;;;;;;79.33;76.00;;;;;6.51;73.31;102858.47;4976399;28;45351;-70
2023/02/11 08:57:57;;;;;;;;;76.33;71.67;;;;;6.66;74.08;102863.91;4978900;28;46207;-70
2023/02/11 09:00:23;;;;;;;;;81.67;77.00;;;;;6.79;73.21;102864.06;4977212;28;45433;-72
2023/02/11 09:02:48;;;;;;;;;76.67;73.33;;;;;6.92;73.26;102867.72;4975779;28;45666;-71
2023/02/11 09:05:13;;;;;;;;;86.67;78.33;;;;;7.05;74.37;102860.91;4975790;28;45394;-72
2023/02/11 09:07:39;;;;;;;;;79.00;72.33;;;;;7.18;73.16;102872.38;4974339;28;45442;-72
2023/02/11 09:10:05;;;;;;;;;81.00;77.33;;;;;7.24;73.85;102867.19;4975111;28;45319;-73
2023/02/11 09:12:30;;;;;;;;;78.00;74.67;;;;;7.31;73.66;102869.03;4972784;28;46094;-71
2023/02/11 09:14:56;;;;;;;;;79.67;77.00;;;;;7.40;73.61;102868.25;4974301;28;45776;-72
2023/02/11 09:17:21;;;;;;;;;78.33;73.67;;;;;7.48;73.04;102863.97;4974080;28;45240;-72
2023/02/11 09:19:47;;;;;;;;;76.67;70.00;;;;;7.62;72.99;102864.09;4973913;28;45327;-71
2023/02/11 09:22:12;;;;;;;;;76.00;70.67;;;;;7.73;71.96;102854.59;4973614;28;45261;-73
2023/02/11 09:24:37;;;;;;;;;76.00;66.67;;;;;7.84;71.59;102865.13;4975374;28;45272;-72
2023/02/11 09:27:03;;;;;;;;;79.00;75.33;;;;;7.91;71.95;102858.22;4975253;28;45348;-70
2023/02/11 09:29:28;;;;;;;;;75.33;70.67;;;;;8.01;71.23;102857.41;4973268;28;45299;-70
2023/02/11 09:31:53;;;;;;;;;76.00;70.33;;;;;8.10;71.12;102855.72;4974342;28;46068;-72
2023/02/11 09:34:19;;;;;;;;;78.00;68.33;;;;;8.17;70.06;102858.41;4974577;28;45237;-71
2023/02/11 09:36:44;;;;;;;;;69.33;60.00;;;;;8.21;70.15;102853.19;4974495;28;45345;-73
2023/02/11 09:39:17;;;;;;;;;102.25;97.25;;;;;8.31;69.92;102868.09;4972407;28;45426;-73
2023/02/11 09:42:18;;;;;;;;;90.00;85.00;;;;;8.40;69.85;102873.41;4972134;28;47266;-72
2023/02/11 09:44:45;;;;;;;;;80.67;75.00;;;;;8.50;69.67;102874.38;4973651;28;45500;-73
2023/02/11 09:47:27;;;;;;;;;77.67;68.67;;;;;8.58;69.86;102867.44;4974609;28;45210;-72
2023/02/11 09:50:09;;;;;;;;;75.67;67.67;;;;;8.57;69.38;102852.56;4974558;28;45378;-71
2023/02/11 09:52:38;;;;;;;;;65.50;52.00;;;;;8.79;69.39;102873.63;4974295;28;46403;-71
2023/02/11 09:55:23;;;;;;;;;61.75;51.50;;;;;8.85;69.06;102873.66;4972585;28;45398;-72
2023/02/11 09:57:49;;;;;;;;;61.25;49.75;;;;;8.39;69.20;102786.84;4973201;28;45384;-70
2023/02/11 10:00:17;;;;;;;;;66.00;54.00;;;;;8.90;69.07;102864.06;4974790;28;45268;-72
2023/02/11 10:03:13;;;;;;;;;52.25;45.00;;;;;9.02;68.75;102872.84;4971887;28;47630;-70
2023/02/11 10:05:47;;;;;;;;;56.00;46.75;;;;;9.07;69.14;102868.47;4973958;28;45283;-71
2023/02/11 10:08:22;;;;;;;;;62.00;50.50;;;;;9.09;69.00;102874.59;4973410;28;45501;-72
2023/02/11 10:10:54;;;;;;;;;68.50;55.50;;;;;9.10;68.90;102870.25;4975937;27;45289;-72
2023/02/11 10:13:46;;;;;;;;;66.50;54.50;;;;;9.11;69.01;102874.63;4973188;28;45389;-72
2023/02/11 10:16:14;;;;;;;;;66.00;54.33;;;;;9.15;68.80;102874.63;4972573;28;45346;-74
2023/02/11 10:19:19;;;;;;;;;63.50;53.50;;;;;9.16;69.21;102860.63;4974557;28;45399;-74
2023/02/11 10:22:08;;;;;;;;;60.00;49.00;;;;;9.28;69.01;102878.16;4978649;28;45363;-73
2023/02/11 10:24:34;;;;;;;;;65.50;53.75;;;;;9.31;68.76;102864.16;4975445;28;45343;-74
2023/02/11 10:27:10;;;;;;;;;73.67;64.00;;;;;9.36;68.80;102875.53;4974376;28;45364;-72
2023/02/11 10:29:51;;;;;;;;;58.50;48.75;;;;;9.42;68.26;102869.44;4972931;28;45342;-72
2023/02/11 10:32:32;;;;;;;;;55.00;46.50;;;;;9.36;68.60;102875.53;4972956;28;45378;-71
2023/02/11 10:35:02;;;;;;;;;61.75;51.75;;;;;9.31;69.14;102874.66;4971705;28;47519;-71
2023/02/11 10:37:29;;;;;;;;;59.75;49.50;;;;;9.28;69.07;102875.53;4972962;28;45257;-72
2023/02/11 10:39:54;;;;;;;;;57.50;48.25;;;;;9.32;69.44;102882.56;4973429;28;45337;-72
2023/02/11 10:42:19;;;;;;;;;66.50;55.00;;;;;9.31;68.88;102875.56;4972949;28;45201;-71
2023/02/11 10:44:57;;;;;;;;;57.75;48.25;;;;;9.25;68.87;102864.13;4972065;28;58966;-72
2023/02/11 10:47:28;;;;;;;;;69.25;56.00;;;;;9.21;68.73;102858.03;4971020;28;45919;-72
2023/02/11 10:50:02;;;;;;;;;69.33;55.33;;;;;9.35;68.69;102876.41;4973344;28;45241;-73
2023/02/11 10:52:36;;;;;;;;;69.33;56.67;;;;;9.32;68.37;102869.44;4973109;28;45442;-71
2023/02/11 10:55:19;;;;;;;;;67.67;54.67;;;;;9.35;68.47;102876.41;4974569;28;45611;-71
2023/02/11 10:58:00;;;;;;;;;68.00;55.00;;;;;9.31;69.06;102865.03;4970895;28;45489;-71
2023/02/11 11:00:36;;;;;;;;;61.50;50.75;;;;;9.34;68.57;102872.03;4972754;28;45258;-72
2023/02/11 11:03:06;;;;;;;;;65.50;54.25;;;;;9.31;69.17;102869.41;4973319;28;45420;-72
2023/02/11 11:05:35;;;;;;;;;49.50;42.00;;;;;9.37;69.03;102871.19;4972852;28;46422;-71
2023/02/11 11:08:06;;;;;;;;;50.00;43.00;;;;;9.38;69.30;102873.78;4973734;28;45458;-71
2023/02/11 11:10:44;;;;;;;;;49.75;42.75;;;;;9.35;69.44;102877.31;4975399;28;45391;-71
2023/02/11 11:13:21;;;;;;;;;44.50;38.25;;;;;9.39;69.85;102877.31;4975804;28;45417;-71
2023/02/11 11:16:08;;;;;;;;;40.75;36.75;;;;;9.42;69.80;102866.81;4973728;28;47379;-72
2023/02/11 11:18:33;;;;;;;;;47.25;41.25;;;;;9.47;69.52;102865.06;4974713;28;45348;-70
2023/02/11 11:21:01;;;;;;;;;36.75;34.50;;;;;9.50;70.00;102865.06;4975909;28;45288;-70
2023/02/11 11:23:29;;;;;;;;;36.25;34.00;;;;;9.62;69.96;102869.47;4974756;28;45604;-72
2023/02/11 11:26:04;;;;;;;;;33.75;31.50;;;;;9.71;69.35;102869.47;4975213;28;45435;-71
2023/02/11 11:28:37;;;;;;;;;40.25;36.25;;;;;9.82;69.27;102865.97;4975486;28;45365;-70
2023/02/11 11:31:04;;;;;;;;;31.25;30.75;;;;;9.89;68.79;102852.81;4976220;28;45394;-71